CYOW/YOW METAR and TAF weather

Enter ICAO airport designator
Station Type Date Time Source
CYOW METAR 2021/03/05 18:00 UTC NOAA

CYOW 051800Z 30017G24KT 15SM FEW050 SCT080 BKN200 M07/M17 A2979 RMK SC2AC2CI3 SLP098


Station Type Date Time Source
CYOW Decoded METAR 2021/03/05 18:00 UTC NOAA

Ottawa Int'L. Ont., Canada (CYOW) 45-19N 075-40W 114M
Mar 05, 2021 - 01:00 PM EST / 2021.03.05 1800 UTC
Wind: from the WNW (300 degrees) at 20 MPH (17 KT) gusting to 28 MPH (24 KT):0
Visibility: 15 mile(s):0
Sky conditions: mostly cloudy
Temperature: 19 F (-7 C)
Windchill: 3 F (-16 C):1
Dew Point: 1 F (-17 C)
Relative Humidity: 44%
Pressure (altimeter): 29.79 in. Hg (1008 hPa)
ob: CYOW 051800Z 30017G24KT 15SM FEW050 SCT080 BKN200 M07/M17 A2979 RMK SC2AC2CI3 SLP098
cycle: 18

Station Type Date Time Source
CYOW TAF 2021/03/05 18:42 UTC NOAA

TAF TAF CYOW 051739Z 0518/0618 29015G25KT P6SM SCT040 BKN120
TEMPO 0518/0522 P6SM -SN BKN040 BKN120
FM052200 31015G25KT P6SM BKN040
BECMG 0603/0605 30012KT
FM061000 29012KT P6SM -SN BKN040 BKN100
RMK NXT FCST BY 052100Z

Example: see airport list